createdAt,value
2019-03-29T00:02:53.746Z,98581.45
2019-03-29T00:07:59.096Z,98572.27
2019-03-29T00:13:04.567Z,98574.31
2019-03-29T00:18:10.098Z,98574.81
2019-03-29T00:23:15.063Z,98571.72
2019-03-29T00:28:19.703Z,98571.62
2019-03-29T00:33:24.346Z,98566.88
2019-03-29T00:38:28.975Z,98572.35
2019-03-29T00:43:34.294Z,98573.31
2019-03-29T00:48:39.804Z,98572.83
2019-03-29T00:53:44.444Z,98574.47
2019-03-29T00:58:49.186Z,98576.11
2019-03-29T01:03:53.837Z,98580.30
2019-03-29T01:08:58.457Z,98570.27
2019-03-29T01:14:03.209Z,98575.67
2019-03-29T01:19:08.051Z,98568.48
2019-03-29T01:24:12.690Z,98566.81
2019-03-29T01:29:17.331Z,98572.09
2019-03-29T01:34:22.071Z,98569.20
2019-03-29T01:39:26.818Z,98564.50
2019-03-29T01:44:31.450Z,98556.75
2019-03-29T01:49:36.089Z,98561.92
2019-03-29T01:54:40.732Z,98563.16
2019-03-29T01:59:47.167Z,98561.03
2019-03-29T02:04:51.966Z,98563.73
2019-03-29T02:09:56.909Z,98563.73
2019-03-29T02:15:01.860Z,98571.17
2019-03-29T02:20:07.216Z,98569.75
2019-03-29T02:25:11.959Z,98571.02
2019-03-29T02:30:16.667Z,98578.76
2019-03-29T02:35:21.341Z,98577.52
2019-03-29T02:40:25.981Z,98581.34
2019-03-29T02:45:31.103Z,98583.20
2019-03-29T02:50:36.827Z,98582.38
2019-03-29T02:55:41.747Z,98585.27
2019-03-29T03:00:47.766Z,98585.38
2019-03-29T03:05:52.555Z,98580.83
2019-03-29T03:10:57.201Z,98583.36
2019-03-29T03:16:02.044Z,98586.37
2019-03-29T03:21:06.802Z,98596.95
2019-03-29T03:26:11.427Z,98592.39
2019-03-29T03:31:16.504Z,98600.84
2019-03-29T03:36:21.218Z,98600.06
2019-03-29T03:41:25.964Z,98603.66
2019-03-29T03:46:30.704Z,98602.00
2019-03-29T03:51:35.448Z,98601.23
2019-03-29T03:56:40.187Z,98595.91
2019-03-29T04:01:44.835Z,98598.40
2019-03-29T04:06:49.573Z,98602.05
2019-03-29T04:11:54.419Z,98604.43
2019-03-29T04:16:59.168Z,98606.72
2019-03-29T04:22:04.007Z,98615.88
2019-03-29T04:27:11.822Z,98604.71
2019-03-29T04:32:16.451Z,98604.48
2019-03-29T04:37:21.202Z,98604.26
2019-03-29T04:42:25.944Z,98611.56
2019-03-29T04:47:30.685Z,98608.02
2019-03-29T04:52:35.444Z,98602.93
2019-03-29T04:57:40.063Z,98614.82
2019-03-29T05:02:44.946Z,98621.86
2019-03-29T05:07:49.758Z,98622.19
2019-03-29T05:12:54.372Z,98624.44
2019-03-29T05:17:58.981Z,98630.69
2019-03-29T05:23:03.681Z,98624.21
2019-03-29T05:28:08.335Z,98631.14
2019-03-29T05:33:13.009Z,98625.80
2019-03-29T05:38:17.703Z,98629.58
2019-03-29T05:43:22.355Z,98626.66
2019-03-29T05:48:27.087Z,98637.62
2019-03-29T05:53:32.035Z,98629.84
2019-03-29T05:58:36.938Z,98636.09
2019-03-29T06:03:41.617Z,98637.97
2019-03-29T06:08:46.469Z,98647.73
2019-03-29T06:13:51.206Z,98644.08
2019-03-29T06:18:56.226Z,98644.70
2019-03-29T06:24:01.001Z,98650.91
2019-03-29T06:29:05.748Z,98641.28
2019-03-29T06:34:10.384Z,98637.17
2019-03-29T06:39:15.130Z,98644.27
2019-03-29T06:44:19.870Z,98645.15
2019-03-29T06:49:24.609Z,98642.67
2019-03-29T06:54:29.457Z,98640.16
2019-03-29T06:59:34.214Z,98640.70
2019-03-29T07:04:38.943Z,98638.68
2019-03-29T07:09:43.792Z,98635.25
2019-03-29T07:14:48.432Z,98634.19
2019-03-29T07:19:53.273Z,98635.14
2019-03-29T07:24:57.914Z,98628.56
2019-03-29T07:30:02.558Z,98623.39
2019-03-29T07:35:08.142Z,98610.56
2019-03-29T07:40:13.781Z,98611.91
2019-03-29T07:45:19.143Z,98605.77
2019-03-29T07:50:23.888Z,98598.34
2019-03-29T07:55:30.268Z,98588.81
2019-03-29T08:00:36.853Z,98596.32
2019-03-29T08:05:41.595Z,98588.77
2019-03-29T08:10:46.333Z,98592.32
2019-03-29T08:15:50.981Z,98582.70
2019-03-29T08:20:55.615Z,98578.64
2019-03-29T08:26:00.467Z,98573.74
2019-03-29T08:31:06.846Z,98574.73
2019-03-29T08:36:11.998Z,98569.09
2019-03-29T08:41:17.898Z,98548.17
2019-03-29T08:46:22.720Z,98533.48
2019-03-29T08:51:27.579Z,98527.67
2019-03-29T08:56:34.266Z,98513.85
2019-03-29T09:01:38.880Z,98508.47
2019-03-29T09:06:53.310Z,98495.12
2019-03-29T09:11:49.812Z,98486.43
2019-03-29T09:16:54.550Z,98465.75
2019-03-29T09:21:59.103Z,98476.59
2019-03-29T09:27:03.834Z,98462.16
2019-03-29T09:32:09.434Z,98466.66
2019-03-29T09:37:15.466Z,98461.22
2019-03-29T09:42:29.145Z,98463.84
2019-03-29T09:47:26.254Z,98458.79
2019-03-29T09:52:30.930Z,98456.69
2019-03-29T09:57:37.900Z,98455.19
2019-03-29T10:02:42.053Z,98447.41
2019-03-29T10:07:46.795Z,98454.92
2019-03-29T10:12:51.541Z,98449.08
2019-03-29T10:17:56.171Z,98436.64
2019-03-29T10:23:00.925Z,98440.48
2019-03-29T10:28:05.669Z,98437.81
2019-03-29T10:33:10.328Z,98421.47
2019-03-29T10:38:17.994Z,98422.79
2019-03-29T10:43:21.231Z,98425.50
2019-03-29T10:48:25.870Z,98426.62
2019-03-29T10:53:30.611Z,98428.00
2019-03-29T10:58:35.355Z,98420.50
2019-03-29T11:03:40.003Z,98429.03
2019-03-29T11:08:44.949Z,98432.46
2019-03-29T11:13:50.004Z,98422.02
2019-03-29T11:18:57.872Z,98414.12
2019-03-29T11:24:02.454Z,98413.47
2019-03-29T11:29:07.402Z,98406.38
2019-03-29T11:34:12.145Z,98406.41
2019-03-29T11:39:16.897Z,98402.69
2019-03-29T11:44:21.632Z,98405.72
2019-03-29T11:49:26.579Z,98404.34
2019-03-29T11:54:31.434Z,98391.02
2019-03-29T11:59:36.271Z,98397.48
2019-03-29T12:04:41.017Z,98394.14
2019-03-29T12:09:45.766Z,98387.39
2019-03-29T12:14:50.607Z,98375.02
2019-03-29T12:19:56.578Z,98373.86
2019-03-29T12:25:01.220Z,98373.14
2019-03-29T12:30:06.980Z,98369.22
2019-03-29T12:35:11.735Z,98350.61
2019-03-29T12:40:16.595Z,98351.21
2019-03-29T12:45:24.380Z,98359.52
2019-03-29T12:50:29.133Z,98355.30
2019-03-29T12:55:33.876Z,98338.16
2019-03-29T13:00:38.618Z,98337.22
2019-03-29T13:05:43.466Z,98332.11
2019-03-29T13:10:49.559Z,98333.17
2019-03-29T13:15:54.801Z,98329.88
2019-03-29T13:21:01.175Z,98340.25
2019-03-29T13:26:06.025Z,98337.68
2019-03-29T13:31:10.764Z,98341.54
2019-03-29T13:36:17.134Z,98332.30
2019-03-29T13:41:21.891Z,98332.97
2019-03-29T13:46:26.737Z,98326.61
2019-03-29T13:51:31.581Z,98326.05
2019-03-29T13:56:36.215Z,98328.62
2019-03-29T14:01:40.969Z,98331.94
2019-03-29T14:06:45.710Z,98321.01
2019-03-29T14:11:50.454Z,98322.73
2019-03-29T14:16:55.703Z,98306.69
2019-03-29T14:22:00.961Z,98315.12
2019-03-29T14:27:05.604Z,98311.55
2019-03-29T14:32:10.346Z,98309.34
2019-03-29T14:37:15.138Z,98292.25
2019-03-29T14:42:19.938Z,98293.61
2019-03-29T14:47:38.527Z,98290.88
2019-03-29T14:52:31.405Z,98285.22
2019-03-29T14:57:36.251Z,98292.64
2019-03-29T15:02:41.366Z,98289.70
2019-03-29T15:07:46.038Z,98291.16
2019-03-29T15:12:50.657Z,98295.11
2019-03-29T15:17:56.414Z,98300.78
2019-03-29T15:23:01.161Z,98305.95
2019-03-29T15:28:06.026Z,98308.22
2019-03-29T15:33:11.160Z,98314.91
2019-03-29T15:38:19.281Z,98324.31
2019-03-29T15:43:25.476Z,98321.41
2019-03-29T15:48:30.736Z,98327.41
2019-03-29T15:53:36.174Z,98337.28
2019-03-29T15:58:40.872Z,98330.90
2019-03-29T16:03:47.507Z,98334.02
2019-03-29T16:08:52.557Z,98334.94
2019-03-29T16:13:57.299Z,98341.50
2019-03-29T16:19:02.039Z,98351.33
2019-03-29T16:24:06.680Z,98353.44
2019-03-29T16:29:11.212Z,98345.80
2019-03-29T16:34:16.079Z,98340.83
2019-03-29T16:39:21.320Z,98334.55
2019-03-29T16:44:26.800Z,98341.78
2019-03-29T16:49:32.274Z,98338.33
2019-03-29T16:54:36.993Z,98344.94
2019-03-29T16:59:43.026Z,98339.03
2019-03-29T17:04:52.009Z,98354.48
2019-03-29T17:09:58.183Z,98351.01
2019-03-29T17:15:03.025Z,98364.03
2019-03-29T17:20:08.269Z,98356.05
2019-03-29T17:25:13.547Z,98357.84
2019-03-29T17:30:21.657Z,98355.98
2019-03-29T17:35:26.499Z,98351.36
2019-03-29T17:40:31.151Z,98347.46
2019-03-29T17:45:36.400Z,98348.27
2019-03-29T17:50:40.931Z,98349.72
2019-03-29T17:55:47.391Z,98363.26
2019-03-29T18:00:53.254Z,98360.50
2019-03-29T18:05:58.134Z,98356.79
2019-03-29T18:11:02.774Z,98355.83
2019-03-29T18:16:07.931Z,98356.28
2019-03-29T18:21:12.666Z,98361.42
2019-03-29T18:26:17.734Z,98348.70
2019-03-29T18:31:24.099Z,98363.48
2019-03-29T18:36:28.741Z,98363.98
2019-03-29T18:41:33.381Z,98365.31
2019-03-29T18:46:44.940Z,98370.94
2019-03-29T18:51:45.221Z,98374.34
2019-03-29T18:56:49.911Z,98376.80
2019-03-29T19:01:54.819Z,98380.08
2019-03-29T19:06:59.737Z,98385.44
2019-03-29T19:12:04.509Z,98386.97
2019-03-29T19:17:09.449Z,98391.09
2019-03-29T19:22:13.990Z,98385.13
2019-03-29T19:27:18.836Z,98393.19
2019-03-29T19:32:23.575Z,98391.03
2019-03-29T19:37:28.427Z,98392.32
2019-03-29T19:42:33.164Z,98399.24
2019-03-29T19:47:37.906Z,98399.41
2019-03-29T19:52:42.652Z,98401.80
2019-03-29T19:57:47.511Z,98405.48
2019-03-29T20:02:54.060Z,98406.02
2019-03-29T20:08:00.132Z,98404.45
2019-03-29T20:13:08.141Z,98401.97
2019-03-29T20:18:13.722Z,98398.98
2019-03-29T20:23:18.706Z,98396.61
2019-03-29T20:28:23.433Z,98393.15
2019-03-29T20:33:28.376Z,98388.11
2019-03-29T20:38:33.119Z,98381.84
2019-03-29T20:43:37.979Z,98388.17
2019-03-29T20:48:42.810Z,98396.11
2019-03-29T20:53:49.483Z,98400.34
2019-03-29T20:58:54.342Z,98389.88
2019-03-29T21:03:59.001Z,98396.27
2019-03-29T21:09:04.139Z,98398.91
2019-03-29T21:14:09.875Z,98397.97
2019-03-29T21:19:14.598Z,98406.70
2019-03-29T21:24:19.497Z,98400.66
2019-03-29T21:29:24.231Z,98403.02
2019-03-29T21:34:29.416Z,98399.14
2019-03-29T21:39:34.033Z,98401.84
2019-03-29T21:44:38.662Z,98403.70
2019-03-29T21:49:43.445Z,98396.95
2019-03-29T21:54:48.358Z,98400.05
2019-03-29T21:59:53.098Z,98401.68
2019-03-29T22:04:57.739Z,98395.80
2019-03-29T22:10:02.370Z,98395.73
2019-03-29T22:15:08.205Z,98409.31
2019-03-29T22:20:12.989Z,98410.86
2019-03-29T22:25:17.844Z,98407.05
2019-03-29T22:30:22.474Z,98411.66
2019-03-29T22:35:27.121Z,98407.20
2019-03-29T22:40:31.758Z,98411.53
2019-03-29T22:45:36.395Z,98413.39
2019-03-29T22:50:41.139Z,98404.22
2019-03-29T22:55:45.883Z,98406.00
2019-03-29T23:00:52.770Z,98397.56
2019-03-29T23:05:57.622Z,98399.91
2019-03-29T23:11:02.259Z,98396.98
2019-03-29T23:16:08.499Z,98385.01
2019-03-29T23:21:13.298Z,98388.56
2019-03-29T23:26:18.925Z,98378.66
2019-03-29T23:31:23.589Z,98377.23
2019-03-29T23:36:28.434Z,98372.16
2019-03-29T23:41:33.179Z,98367.68
2019-03-29T23:46:38.139Z,98363.63
2019-03-29T23:51:42.858Z,98364.98
2019-03-29T23:56:50.583Z,98362.87
